createdAt,value
2018-10-19T00:04:33.133Z,60.17
2018-10-19T00:09:37.558Z,59.50
2018-10-19T00:14:41.919Z,58.67
2018-10-19T00:19:46.422Z,63.90
2018-10-19T00:24:50.730Z,60.27
2018-10-19T00:29:54.927Z,61.80
2018-10-19T00:34:59.267Z,61.20
2018-10-19T00:40:03.373Z,61.17
2018-10-19T00:45:07.662Z,61.57
2018-10-19T00:50:11.880Z,61.90
2018-10-19T00:55:16.088Z,61.77
2018-10-19T01:00:20.261Z,62.70
2018-10-19T01:05:24.302Z,63.07
2018-10-19T01:10:28.513Z,63.13
2018-10-19T01:15:32.598Z,62.90
2018-10-19T01:20:36.687Z,61.17
2018-10-19T01:25:41.445Z,63.33
2018-10-19T01:30:45.683Z,61.93
2018-10-19T01:35:49.743Z,62.47
2018-10-19T01:40:53.933Z,61.80
2018-10-19T01:45:58.708Z,62.67
2018-10-19T01:51:02.814Z,62.30
2018-10-19T01:56:06.932Z,65.37
2018-10-19T02:01:11.092Z,63.93
2018-10-19T02:06:15.268Z,68.53
2018-10-19T02:11:19.736Z,64.27
2018-10-19T02:16:23.922Z,65.10
2018-10-19T02:21:27.980Z,65.97
2018-10-19T02:26:32.177Z,67.33
2018-10-19T02:31:36.399Z,65.70
2018-10-19T02:36:40.562Z,65.33
2018-10-19T02:41:44.734Z,66.73
2018-10-19T02:46:48.864Z,64.97
2018-10-19T02:51:52.942Z,65.20
2018-10-19T02:56:57.031Z,66.33
2018-10-19T03:02:01.240Z,65.23
2018-10-19T03:07:06.001Z,67.47
2018-10-19T03:12:10.108Z,62.83
2018-10-19T03:17:13.881Z,64.37
2018-10-19T03:22:17.828Z,68.10
2018-10-19T03:27:21.953Z,65.40
2018-10-19T03:32:26.047Z,69.13
2018-10-19T03:37:30.433Z,65.23
2018-10-19T03:42:34.514Z,66.27
2018-10-19T03:47:38.613Z,80.77
2018-10-19T03:52:42.683Z,71.90
2018-10-19T03:57:46.769Z,65.30
2018-10-19T04:02:50.804Z,66.83
2018-10-19T04:07:54.905Z,65.97
2018-10-19T04:12:59.004Z,68.33
2018-10-19T04:18:03.131Z,64.77
2018-10-19T04:23:08.455Z,64.77
2018-10-19T04:28:12.506Z,68.47
2018-10-19T04:33:16.656Z,68.17
2018-10-19T04:38:20.692Z,68.10
2018-10-19T04:43:24.755Z,67.90
2018-10-19T04:48:28.912Z,69.60
2018-10-19T04:53:32.956Z,69.70
2018-10-19T04:58:36.997Z,65.33
2018-10-19T05:03:41.091Z,66.07
2018-10-19T05:08:45.220Z,66.13
2018-10-19T05:13:49.313Z,67.57
2018-10-19T05:18:53.378Z,69.17
2018-10-19T05:23:57.494Z,66.03
2018-10-19T05:29:01.739Z,71.33
2018-10-19T05:34:05.827Z,66.87
2018-10-19T05:39:10.233Z,70.57
2018-10-19T05:44:14.043Z,71.20
2018-10-19T05:49:18.146Z,72.73
2018-10-19T05:54:22.291Z,70.97
2018-10-19T05:59:26.387Z,73.77
2018-10-19T06:04:30.485Z,71.70
2018-10-19T06:09:34.658Z,66.50
2018-10-19T06:14:38.422Z,66.67
2018-10-19T06:19:42.436Z,67.63
2018-10-19T06:24:46.508Z,64.77
2018-10-19T06:29:50.572Z,67.67
2018-10-19T06:34:54.665Z,71.03
2018-10-19T06:39:58.436Z,67.10
2018-10-19T06:45:02.127Z,71.00
2018-10-19T06:50:08.224Z,69.07
2018-10-19T06:55:15.506Z,67.63
2018-10-19T07:00:19.545Z,63.40
2018-10-19T07:05:23.581Z,61.90
2018-10-19T07:10:27.645Z,62.13
2018-10-19T07:15:31.661Z,63.73
2018-10-19T07:20:35.709Z,60.67
2018-10-19T07:25:39.750Z,60.47
2018-10-19T07:30:43.756Z,55.10
2018-10-19T07:35:47.766Z,54.23
2018-10-19T07:40:51.816Z,56.50
2018-10-19T07:45:55.880Z,51.60
2018-10-19T07:50:59.974Z,51.90
2018-10-19T07:56:04.348Z,52.77
2018-10-19T08:01:08.393Z,52.43
2018-10-19T08:06:12.385Z,51.83
2018-10-19T08:11:16.504Z,53.73
2018-10-19T08:16:20.439Z,53.20
2018-10-19T08:21:24.458Z,51.17
2018-10-19T08:26:28.526Z,53.33
2018-10-19T08:31:32.611Z,54.73
2018-10-19T08:36:36.649Z,56.70
2018-10-19T08:41:40.767Z,54.10
2018-10-19T08:46:52.293Z,57.03
2018-10-19T08:51:56.321Z,54.27
2018-10-19T08:57:00.377Z,58.90
2018-10-19T09:02:04.545Z,57.37
2018-10-19T09:07:08.504Z,57.13
2018-10-19T09:12:12.560Z,55.00
2018-10-19T09:17:16.638Z,55.03
2018-10-19T09:22:21.046Z,63.10
2018-10-19T09:27:25.068Z,54.73
2018-10-19T09:32:29.806Z,55.57
2018-10-19T09:37:33.872Z,54.27
2018-10-19T09:42:37.865Z,54.90
2018-10-19T09:47:41.885Z,54.70
2018-10-19T09:52:45.933Z,54.67
2018-10-19T09:57:49.967Z,53.07
2018-10-19T10:02:54.145Z,51.57
2018-10-19T10:07:58.241Z,54.93
2018-10-19T10:13:02.223Z,51.50
2018-10-19T10:18:06.357Z,49.93
2018-10-19T10:23:10.388Z,50.37
2018-10-19T10:28:14.494Z,47.83
2018-10-19T10:33:18.492Z,47.40
2018-10-19T10:38:22.499Z,46.10
2018-10-19T10:43:26.485Z,46.90
2018-10-19T10:48:30.594Z,44.47
2018-10-19T10:53:34.622Z,43.45
2018-10-19T10:58:38.676Z,44.45
2018-10-19T11:03:42.743Z,41.45
2018-10-19T11:08:46.817Z,43.75
2018-10-19T11:13:50.781Z,43.13
2018-10-19T11:18:54.820Z,38.83
2018-10-19T11:23:58.937Z,39.63
2018-10-19T11:29:02.991Z,39.85
2018-10-19T11:34:07.057Z,39.25
2018-10-19T11:39:11.424Z,40.12
2018-10-19T11:44:15.469Z,36.38
2018-10-19T11:49:19.624Z,40.08
2018-10-19T11:54:23.535Z,40.07
2018-10-19T11:59:27.612Z,42.60
2018-10-19T12:04:31.629Z,43.02
2018-10-19T12:09:35.688Z,42.98
2018-10-19T12:14:39.698Z,43.13
2018-10-19T12:19:43.874Z,38.15
2018-10-19T12:24:48.081Z,37.30
2018-10-19T12:29:52.141Z,34.40
2018-10-19T12:34:56.168Z,37.58
2018-10-19T12:40:00.232Z,33.28
2018-10-19T12:45:04.500Z,35.45
2018-10-19T12:50:08.738Z,28.23
2018-10-19T12:55:12.853Z,34.15
2018-10-19T13:00:16.913Z,33.23
2018-10-19T13:05:21.016Z,32.95
2018-10-19T13:10:25.229Z,32.35
2018-10-19T13:15:29.339Z,34.33
2018-10-19T13:20:33.321Z,33.88
2018-10-19T13:25:37.904Z,35.43
2018-10-19T13:30:42.146Z,34.53
2018-10-19T13:35:46.275Z,34.50
2018-10-19T13:40:50.985Z,30.80
2018-10-19T13:45:55.564Z,33.98
2018-10-19T13:51:00.818Z,33.10
2018-10-19T13:56:05.860Z,33.98
2018-10-19T14:01:11.246Z,32.83
2018-10-19T14:06:16.967Z,33.87
2018-10-19T14:11:22.024Z,34.27
2018-10-19T14:16:27.545Z,35.83
2018-10-19T14:21:31.691Z,33.50
2018-10-19T14:26:35.969Z,32.10
2018-10-19T14:31:40.040Z,36.27
2018-10-19T14:36:45.209Z,35.05
2018-10-19T14:41:50.427Z,37.40
2018-10-19T14:46:56.181Z,33.92
2018-10-19T14:52:01.449Z,35.43
2018-10-19T14:57:07.391Z,34.23
2018-10-19T15:02:12.735Z,33.92
2018-10-19T15:07:18.327Z,34.92
2018-10-19T15:12:22.374Z,34.48
2018-10-19T15:17:27.579Z,40.47
2018-10-19T15:22:33.333Z,38.10
2018-10-19T15:27:37.927Z,38.03
2018-10-19T15:32:43.731Z,38.73
2018-10-19T15:37:48.740Z,40.80
2018-10-19T15:42:55.916Z,40.33
2018-10-19T15:48:02.655Z,48.77
2018-10-19T15:53:13.290Z,49.47
2018-10-19T15:58:25.542Z,49.17
2018-10-19T16:03:34.397Z,50.03
2018-10-19T16:08:41.027Z,51.87
2018-10-19T16:13:47.005Z,52.60
2018-10-19T16:18:53.471Z,53.97
2018-10-19T16:23:58.915Z,54.87
2018-10-19T16:29:04.094Z,52.17
2018-10-19T16:34:09.591Z,51.97
2018-10-19T16:39:16.483Z,54.53
2018-10-19T16:44:21.758Z,54.57
2018-10-19T16:49:26.117Z,55.93
2018-10-19T16:54:31.223Z,55.83
2018-10-19T16:59:36.165Z,57.87
2018-10-19T17:04:40.702Z,59.20
2018-10-19T17:09:45.335Z,58.33
2018-10-19T17:14:49.467Z,57.80
2018-10-19T17:19:53.963Z,62.33
2018-10-19T17:24:59.444Z,71.23
2018-10-19T17:30:04.942Z,84.87
2018-10-19T17:35:10.984Z,62.77
2018-10-19T17:40:16.584Z,68.27
2018-10-19T17:45:21.057Z,61.67
2018-10-19T17:50:26.124Z,63.07
2018-10-19T17:55:31.841Z,62.83
2018-10-19T18:00:38.724Z,54.00
2018-10-19T18:05:44.116Z,57.50
2018-10-19T18:10:49.726Z,57.00
2018-10-19T18:15:53.428Z,60.50
2018-10-19T18:20:57.429Z,72.43
2018-10-19T18:26:01.646Z,69.27
2018-10-19T18:31:05.918Z,67.37
2018-10-19T18:36:09.672Z,64.47
2018-10-19T18:41:13.712Z,72.60
2018-10-19T18:46:17.715Z,65.00
2018-10-19T18:51:21.473Z,62.97
2018-10-19T18:56:25.342Z,61.77
2018-10-19T19:01:31.542Z,59.03
2018-10-19T19:06:36.932Z,59.80
2018-10-19T19:11:43.140Z,57.87
2018-10-19T19:16:48.019Z,58.73
2018-10-19T19:21:53.674Z,58.20
2018-10-19T19:26:59.644Z,62.87
2018-10-19T19:32:07.188Z,62.20
2018-10-19T19:37:11.324Z,59.60
2018-10-19T19:42:22.000Z,60.27
2018-10-19T19:47:32.590Z,62.87
2018-10-19T19:52:38.177Z,65.97
2018-10-19T19:57:44.077Z,62.73
2018-10-19T20:02:50.516Z,61.53
2018-10-19T20:07:57.404Z,60.77
2018-10-19T20:13:02.992Z,60.33
2018-10-19T20:18:07.091Z,62.20
2018-10-19T20:23:11.620Z,60.07
2018-10-19T20:28:17.657Z,62.47
2018-10-19T20:33:23.363Z,60.57
2018-10-19T20:38:29.651Z,60.50
2018-10-19T20:43:35.141Z,62.43
2018-10-19T20:48:41.453Z,60.20
2018-10-19T20:53:47.688Z,60.93
2018-10-19T20:58:51.806Z,61.10
2018-10-19T21:03:55.791Z,61.63
2018-10-19T21:09:00.012Z,61.73
2018-10-19T21:14:04.627Z,64.33
2018-10-19T21:19:08.911Z,65.57
2018-10-19T21:24:12.934Z,65.50
2018-10-19T21:29:17.227Z,60.63
2018-10-19T21:34:21.301Z,66.57
2018-10-19T21:39:25.116Z,68.33
2018-10-19T21:44:28.914Z,62.30
2018-10-19T21:49:33.120Z,64.13
2018-10-19T21:54:37.147Z,61.20
2018-10-19T21:59:40.843Z,59.73
2018-10-19T22:04:44.857Z,59.43
2018-10-19T22:09:49.063Z,61.50
2018-10-19T22:14:53.628Z,63.30
2018-10-19T22:19:57.901Z,63.30
2018-10-19T22:25:02.251Z,63.57
2018-10-19T22:30:08.429Z,65.73
2018-10-19T22:35:13.185Z,62.73
2018-10-19T22:40:18.068Z,58.50
2018-10-19T22:45:22.242Z,58.47
2018-10-19T22:50:26.464Z,59.57
2018-10-19T22:55:30.628Z,60.23
2018-10-19T23:00:34.753Z,59.33
2018-10-19T23:05:39.017Z,59.73
2018-10-19T23:10:42.858Z,64.80
2018-10-19T23:15:46.588Z,67.20
2018-10-19T23:20:50.704Z,66.27
2018-10-19T23:25:54.461Z,63.77
2018-10-19T23:30:58.544Z,62.43
2018-10-19T23:36:02.418Z,62.77
2018-10-19T23:41:06.496Z,62.13
2018-10-19T23:46:10.738Z,62.37
2018-10-19T23:51:15.577Z,62.60
2018-10-19T23:56:19.598Z,61.37
